Clayton, Texas
Current Conditions -  °F | °C
As of 8:35 AM on Sunday 23 Nov 2014 (Local Time) from KRFI Reporting Station
Overcast Overcast  
Wind Chill: 62°   Ceiling: 300
Heat Index: 62°   Visibility: 10mi
Dew Point: 62°   Wind: 7mph
Humidity: 100%   Direction: 220°SW
Pressure: 29.6"   Gusts: NA
Location:  32.1°N, 94.48°W
Report Text: KRFI 231435Z AUTO 22006KT 10SM OVC003 17/17 A2960 RMK AO2 T01660166
Loading
Personal Weather Stations






























Interactive Weather Map New forecast layout! Learn more

10-Day Weather Forecast

Advertisements
Track Severe Weather on mobile